sensor_id;sensor_type;location;lat;lon;timestamp;P1;durP1;ratioP1;P2;durP2;ratioP2
20230;SDS011;10274;49.022;9.338;2023-06-10T00:00:02;3.73;;;3.07;;
20230;SDS011;10274;49.022;9.338;2023-06-10T00:02:30;3.40;;;3.10;;
20230;SDS011;10274;49.022;9.338;2023-06-10T00:04:58;3.47;;;2.70;;
20230;SDS011;10274;49.022;9.338;2023-06-10T00:07:25;3.03;;;2.73;;
20230;SDS011;10274;49.022;9.338;2023-06-10T00:09:51;3.50;;;3.17;;
20230;SDS011;10274;49.022;9.338;2023-06-10T00:12:18;3.13;;;2.60;;
20230;SDS011;10274;49.022;9.338;2023-06-10T00:14:45;5.13;;;3.03;;
20230;SDS011;10274;49.022;9.338;2023-06-10T00:17:15;3.27;;;2.90;;
20230;SDS011;10274;49.022;9.338;2023-06-10T00:19:41;2.70;;;2.50;;
20230;SDS011;10274;49.022;9.338;2023-06-10T00:22:10;2.80;;;2.60;;
20230;SDS011;10274;49.022;9.338;2023-06-10T00:24:37;3.00;;;2.70;;
20230;SDS011;10274;49.022;9.338;2023-06-10T00:27:04;2.50;;;2.30;;
20230;SDS011;10274;49.022;9.338;2023-06-10T00:29:31;2.90;;;2.70;;
20230;SDS011;10274;49.022;9.338;2023-06-10T00:31:58;2.53;;;2.33;;
20230;SDS011;10274;49.022;9.338;2023-06-10T00:34:25;3.13;;;2.50;;
20230;SDS011;10274;49.022;9.338;2023-06-10T00:36:52;2.87;;;2.57;;
20230;SDS011;10274;49.022;9.338;2023-06-10T00:39:20;2.97;;;2.67;;
20230;SDS011;10274;49.022;9.338;2023-06-10T00:41:46;2.73;;;2.40;;
20230;SDS011;10274;49.022;9.338;2023-06-10T00:44:13;2.60;;;2.40;;
20230;SDS011;10274;49.022;9.338;2023-06-10T00:46:40;2.73;;;2.53;;
20230;SDS011;10274;49.022;9.338;2023-06-10T00:49:07;2.70;;;2.50;;
20230;SDS011;10274;49.022;9.338;2023-06-10T00:51:34;3.20;;;2.90;;
20230;SDS011;10274;49.022;9.338;2023-06-10T00:54:01;2.40;;;2.20;;
20230;SDS011;10274;49.022;9.338;2023-06-10T00:56:30;2.80;;;2.60;;
20230;SDS011;10274;49.022;9.338;2023-06-10T00:58:57;2.97;;;2.53;;
20230;SDS011;10274;49.022;9.338;2023-06-10T01:01:25;2.73;;;2.53;;
20230;SDS011;10274;49.022;9.338;2023-06-10T01:03:51;2.50;;;2.30;;
20230;SDS011;10274;49.022;9.338;2023-06-10T01:06:20;2.63;;;2.43;;
20230;SDS011;10274;49.022;9.338;2023-06-10T01:08:55;2.53;;;2.33;;
20230;SDS011;10274;49.022;9.338;2023-06-10T01:11:32;3.77;;;2.67;;
20230;SDS011;10274;49.022;9.338;2023-06-10T01:14:02;2.90;;;2.70;;
20230;SDS011;10274;49.022;9.338;2023-06-10T01:16:32;2.77;;;2.47;;
20230;SDS011;10274;49.022;9.338;2023-06-10T01:19:00;2.47;;;2.27;;
20230;SDS011;10274;49.022;9.338;2023-06-10T01:21:28;2.37;;;2.17;;
20230;SDS011;10274;49.022;9.338;2023-06-10T01:23:56;2.80;;;2.60;;
20230;SDS011;10274;49.022;9.338;2023-06-10T01:26:24;2.83;;;2.60;;
20230;SDS011;10274;49.022;9.338;2023-06-10T01:29:04;2.80;;;2.60;;
20230;SDS011;10274;49.022;9.338;2023-06-10T01:31:37;2.83;;;2.63;;
20230;SDS011;10274;49.022;9.338;2023-06-10T01:34:11;2.70;;;2.50;;
20230;SDS011;10274;49.022;9.338;2023-06-10T01:36:41;2.80;;;2.60;;
20230;SDS011;10274;49.022;9.338;2023-06-10T01:39:13;2.73;;;2.53;;
20230;SDS011;10274;49.022;9.338;2023-06-10T01:41:41;2.73;;;2.53;;
20230;SDS011;10274;49.022;9.338;2023-06-10T01:44:08;3.00;;;2.73;;
20230;SDS011;10274;49.022;9.338;2023-06-10T01:46:35;3.17;;;2.87;;
20230;SDS011;10274;49.022;9.338;2023-06-10T01:49:02;3.03;;;2.73;;
20230;SDS011;10274;49.022;9.338;2023-06-10T01:51:29;3.20;;;2.90;;
20230;SDS011;10274;49.022;9.338;2023-06-10T01:53:58;3.30;;;3.00;;
20230;SDS011;10274;49.022;9.338;2023-06-10T01:56:24;3.20;;;2.90;;
20230;SDS011;10274;49.022;9.338;2023-06-10T01:58:51;2.93;;;2.73;;
20230;SDS011;10274;49.022;9.338;2023-06-10T02:01:20;3.50;;;3.20;;
20230;SDS011;10274;49.022;9.338;2023-06-10T02:03:46;3.00;;;2.70;;
20230;SDS011;10274;49.022;9.338;2023-06-10T02:06:13;3.33;;;3.03;;
20230;SDS011;10274;49.022;9.338;2023-06-10T02:08:40;3.60;;;3.30;;
20230;SDS011;10274;49.022;9.338;2023-06-10T02:11:08;3.07;;;2.77;;
20230;SDS011;10274;49.022;9.338;2023-06-10T02:13:35;4.70;;;3.13;;
20230;SDS011;10274;49.022;9.338;2023-06-10T02:16:01;3.20;;;2.90;;
20230;SDS011;10274;49.022;9.338;2023-06-10T02:18:28;3.10;;;2.80;;
20230;SDS011;10274;49.022;9.338;2023-06-10T02:20:55;3.50;;;3.20;;
20230;SDS011;10274;49.022;9.338;2023-06-10T02:23:22;3.90;;;3.60;;
20230;SDS011;10274;49.022;9.338;2023-06-10T02:25:48;3.37;;;3.07;;
20230;SDS011;10274;49.022;9.338;2023-06-10T02:28:17;3.63;;;3.33;;
20230;SDS011;10274;49.022;9.338;2023-06-10T02:30:43;3.37;;;3.07;;
20230;SDS011;10274;49.022;9.338;2023-06-10T02:33:11;3.30;;;3.00;;
20230;SDS011;10274;49.022;9.338;2023-06-10T02:35:39;3.23;;;2.97;;
20230;SDS011;10274;49.022;9.338;2023-06-10T02:38:06;3.30;;;3.00;;
20230;SDS011;10274;49.022;9.338;2023-06-10T02:40:32;3.33;;;3.03;;
20230;SDS011;10274;49.022;9.338;2023-06-10T02:42:59;3.57;;;3.27;;
20230;SDS011;10274;49.022;9.338;2023-06-10T02:45:27;3.43;;;3.13;;
20230;SDS011;10274;49.022;9.338;2023-06-10T02:47:54;3.67;;;3.37;;
20230;SDS011;10274;49.022;9.338;2023-06-10T02:50:21;3.23;;;2.93;;
20230;SDS011;10274;49.022;9.338;2023-06-10T02:52:48;3.40;;;3.10;;
20230;SDS011;10274;49.022;9.338;2023-06-10T02:55:15;3.57;;;3.23;;
20230;SDS011;10274;49.022;9.338;2023-06-10T02:57:41;3.53;;;3.23;;
20230;SDS011;10274;49.022;9.338;2023-06-10T03:00:08;3.10;;;2.90;;
20230;SDS011;10274;49.022;9.338;2023-06-10T03:02:37;2.90;;;2.60;;
20230;SDS011;10274;49.022;9.338;2023-06-10T03:05:05;3.53;;;3.23;;
20230;SDS011;10274;49.022;9.338;2023-06-10T03:07:35;3.30;;;3.00;;
20230;SDS011;10274;49.022;9.338;2023-06-10T03:10:02;3.93;;;3.53;;
20230;SDS011;10274;49.022;9.338;2023-06-10T03:12:30;3.27;;;2.97;;
20230;SDS011;10274;49.022;9.338;2023-06-10T03:14:56;3.53;;;3.23;;
20230;SDS011;10274;49.022;9.338;2023-06-10T03:17:23;3.50;;;3.20;;
20230;SDS011;10274;49.022;9.338;2023-06-10T03:19:51;3.80;;;3.50;;
20230;SDS011;10274;49.022;9.338;2023-06-10T03:22:18;3.50;;;3.20;;
20230;SDS011;10274;49.022;9.338;2023-06-10T03:24:45;3.30;;;3.00;;
20230;SDS011;10274;49.022;9.338;2023-06-10T03:27:15;4.03;;;3.33;;
20230;SDS011;10274;49.022;9.338;2023-06-10T03:29:42;3.90;;;3.50;;
20230;SDS011;10274;49.022;9.338;2023-06-10T03:32:09;3.40;;;3.10;;
20230;SDS011;10274;49.022;9.338;2023-06-10T03:34:36;3.70;;;3.40;;
20230;SDS011;10274;49.022;9.338;2023-06-10T03:37:05;3.80;;;3.50;;
20230;SDS011;10274;49.022;9.338;2023-06-10T03:39:32;3.90;;;3.50;;
20230;SDS011;10274;49.022;9.338;2023-06-10T03:41:59;3.57;;;3.27;;
20230;SDS011;10274;49.022;9.338;2023-06-10T03:44:26;4.77;;;3.30;;
20230;SDS011;10274;49.022;9.338;2023-06-10T03:46:52;3.83;;;3.53;;
20230;SDS011;10274;49.022;9.338;2023-06-10T03:49:19;4.37;;;3.80;;
20230;SDS011;10274;49.022;9.338;2023-06-10T03:51:46;3.53;;;3.23;;
20230;SDS011;10274;49.022;9.338;2023-06-10T03:54:14;3.60;;;3.30;;
20230;SDS011;10274;49.022;9.338;2023-06-10T03:56:41;3.60;;;3.30;;
20230;SDS011;10274;49.022;9.338;2023-06-10T03:59:08;3.77;;;3.47;;
20230;SDS011;10274;49.022;9.338;2023-06-10T04:01:34;3.70;;;3.40;;
20230;SDS011;10274;49.022;9.338;2023-06-10T04:04:02;3.77;;;3.47;;
20230;SDS011;10274;49.022;9.338;2023-06-10T04:06:29;3.60;;;3.30;;
20230;SDS011;10274;49.022;9.338;2023-06-10T04:08:56;3.20;;;2.90;;
20230;SDS011;10274;49.022;9.338;2023-06-10T04:11:25;3.70;;;3.40;;
20230;SDS011;10274;49.022;9.338;2023-06-10T04:13:51;3.63;;;3.33;;
20230;SDS011;10274;49.022;9.338;2023-06-10T04:16:18;3.50;;;3.20;;
20230;SDS011;10274;49.022;9.338;2023-06-10T04:18:46;4.40;;;4.00;;
20230;SDS011;10274;49.022;9.338;2023-06-10T04:21:12;3.83;;;3.53;;
20230;SDS011;10274;49.022;9.338;2023-06-10T04:23:39;4.03;;;3.63;;
20230;SDS011;10274;49.022;9.338;2023-06-10T04:26:06;3.73;;;3.43;;
20230;SDS011;10274;49.022;9.338;2023-06-10T04:28:35;3.60;;;3.27;;
20230;SDS011;10274;49.022;9.338;2023-06-10T04:31:01;4.17;;;3.50;;
20230;SDS011;10274;49.022;9.338;2023-06-10T04:33:29;3.57;;;3.27;;
20230;SDS011;10274;49.022;9.338;2023-06-10T04:35:55;3.93;;;3.53;;
20230;SDS011;10274;49.022;9.338;2023-06-10T04:38:22;3.90;;;3.60;;
20230;SDS011;10274;49.022;9.338;2023-06-10T04:40:49;4.03;;;3.67;;
20230;SDS011;10274;49.022;9.338;2023-06-10T04:43:16;4.37;;;3.53;;
20230;SDS011;10274;49.022;9.338;2023-06-10T04:45:44;4.30;;;3.90;;
20230;SDS011;10274;49.022;9.338;2023-06-10T04:48:12;3.63;;;3.30;;
20230;SDS011;10274;49.022;9.338;2023-06-10T04:50:38;5.27;;;3.67;;
20230;SDS011;10274;49.022;9.338;2023-06-10T04:53:05;3.80;;;3.50;;
20230;SDS011;10274;49.022;9.338;2023-06-10T04:55:32;3.37;;;3.17;;
20230;SDS011;10274;49.022;9.338;2023-06-10T04:57:59;4.20;;;3.80;;
20230;SDS011;10274;49.022;9.338;2023-06-10T05:00:26;4.40;;;4.00;;
20230;SDS011;10274;49.022;9.338;2023-06-10T05:02:54;3.60;;;3.30;;
20230;SDS011;10274;49.022;9.338;2023-06-10T05:05:21;4.50;;;4.10;;
20230;SDS011;10274;49.022;9.338;2023-06-10T05:07:47;4.13;;;3.83;;
20230;SDS011;10274;49.022;9.338;2023-06-10T05:10:14;4.13;;;3.73;;
20230;SDS011;10274;49.022;9.338;2023-06-10T05:12:41;4.10;;;3.80;;
20230;SDS011;10274;49.022;9.338;2023-06-10T05:15:08;4.20;;;3.80;;
20230;SDS011;10274;49.022;9.338;2023-06-10T05:17:35;4.10;;;3.70;;
20230;SDS011;10274;49.022;9.338;2023-06-10T05:20:04;4.03;;;3.70;;
20230;SDS011;10274;49.022;9.338;2023-06-10T05:22:31;4.43;;;4.03;;
20230;SDS011;10274;49.022;9.338;2023-06-10T05:24:59;4.57;;;4.17;;
20230;SDS011;10274;49.022;9.338;2023-06-10T05:27:26;6.20;;;4.20;;
20230;SDS011;10274;49.022;9.338;2023-06-10T05:29:52;4.40;;;4.00;;
20230;SDS011;10274;49.022;9.338;2023-06-10T05:32:19;5.50;;;4.33;;
20230;SDS011;10274;49.022;9.338;2023-06-10T05:34:46;4.47;;;4.07;;
20230;SDS011;10274;49.022;9.338;2023-06-10T05:37:14;7.03;;;3.90;;
20230;SDS011;10274;49.022;9.338;2023-06-10T05:39:41;5.07;;;4.53;;
20230;SDS011;10274;49.022;9.338;2023-06-10T05:42:08;4.87;;;4.47;;
20230;SDS011;10274;49.022;9.338;2023-06-10T05:44:35;4.20;;;3.80;;
20230;SDS011;10274;49.022;9.338;2023-06-10T05:47:02;5.00;;;4.50;;
20230;SDS011;10274;49.022;9.338;2023-06-10T05:49:29;4.30;;;3.90;;
20230;SDS011;10274;49.022;9.338;2023-06-10T05:51:56;4.40;;;4.00;;
20230;SDS011;10274;49.022;9.338;2023-06-10T05:54:25;4.10;;;3.70;;
20230;SDS011;10274;49.022;9.338;2023-06-10T05:56:52;4.00;;;3.60;;
20230;SDS011;10274;49.022;9.338;2023-06-10T05:59:19;4.30;;;3.90;;
20230;SDS011;10274;49.022;9.338;2023-06-10T06:01:47;3.90;;;3.60;;
20230;SDS011;10274;49.022;9.338;2023-06-10T06:04:14;5.53;;;3.97;;
20230;SDS011;10274;49.022;9.338;2023-06-10T06:06:41;3.90;;;3.60;;
20230;SDS011;10274;49.022;9.338;2023-06-10T06:09:08;4.40;;;4.00;;
20230;SDS011;10274;49.022;9.338;2023-06-10T06:11:36;4.00;;;3.60;;
20230;SDS011;10274;49.022;9.338;2023-06-10T06:14:03;4.97;;;3.83;;
20230;SDS011;10274;49.022;9.338;2023-06-10T06:16:29;4.10;;;3.80;;
20230;SDS011;10274;49.022;9.338;2023-06-10T06:18:56;4.33;;;3.93;;
20230;SDS011;10274;49.022;9.338;2023-06-10T06:21:23;4.23;;;3.83;;
20230;SDS011;10274;49.022;9.338;2023-06-10T06:23:50;4.73;;;4.30;;
20230;SDS011;10274;49.022;9.338;2023-06-10T06:26:16;4.37;;;3.97;;
20230;SDS011;10274;49.022;9.338;2023-06-10T06:28:44;4.40;;;4.00;;
20230;SDS011;10274;49.022;9.338;2023-06-10T06:31:11;4.00;;;3.70;;
20230;SDS011;10274;49.022;9.338;2023-06-10T06:33:38;4.73;;;4.20;;
20230;SDS011;10274;49.022;9.338;2023-06-10T06:36:05;4.40;;;4.07;;
20230;SDS011;10274;49.022;9.338;2023-06-10T06:38:32;4.33;;;3.93;;
20230;SDS011;10274;49.022;9.338;2023-06-10T06:40:58;4.10;;;3.70;;
20230;SDS011;10274;49.022;9.338;2023-06-10T06:43:28;3.60;;;3.30;;
20230;SDS011;10274;49.022;9.338;2023-06-10T06:45:56;4.13;;;3.17;;
20230;SDS011;10274;49.022;9.338;2023-06-10T06:48:23;3.83;;;3.47;;
20230;SDS011;10274;49.022;9.338;2023-06-10T06:50:50;3.57;;;3.27;;
20230;SDS011;10274;49.022;9.338;2023-06-10T06:53:17;3.93;;;3.03;;
20230;SDS011;10274;49.022;9.338;2023-06-10T06:55:43;3.60;;;3.30;;
20230;SDS011;10274;49.022;9.338;2023-06-10T06:58:10;4.60;;;3.33;;
20230;SDS011;10274;49.022;9.338;2023-06-10T07:00:37;3.97;;;3.47;;
20230;SDS011;10274;49.022;9.338;2023-06-10T07:03:05;4.00;;;3.60;;
20230;SDS011;10274;49.022;9.338;2023-06-10T07:05:31;4.37;;;4.00;;
20230;SDS011;10274;49.022;9.338;2023-06-10T07:07:58;3.80;;;3.50;;
20230;SDS011;10274;49.022;9.338;2023-06-10T07:10:25;3.90;;;3.60;;
20230;SDS011;10274;49.022;9.338;2023-06-10T07:12:52;4.03;;;3.67;;
20230;SDS011;10274;49.022;9.338;2023-06-10T07:15:19;3.70;;;3.40;;
20230;SDS011;10274;49.022;9.338;2023-06-10T07:17:46;3.63;;;3.33;;
20230;SDS011;10274;49.022;9.338;2023-06-10T07:20:14;4.13;;;3.83;;
20230;SDS011;10274;49.022;9.338;2023-06-10T07:22:41;3.70;;;3.40;;
20230;SDS011;10274;49.022;9.338;2023-06-10T07:25:08;3.93;;;3.60;;
20230;SDS011;10274;49.022;9.338;2023-06-10T07:27:35;3.73;;;3.43;;
20230;SDS011;10274;49.022;9.338;2023-06-10T07:30:02;4.47;;;4.07;;
20230;SDS011;10274;49.022;9.338;2023-06-10T07:32:30;4.03;;;3.63;;
20230;SDS011;10274;49.022;9.338;2023-06-10T07:34:56;3.80;;;3.40;;
20230;SDS011;10274;49.022;9.338;2023-06-10T07:37:25;3.60;;;3.30;;
20230;SDS011;10274;49.022;9.338;2023-06-10T07:39:51;3.85;;;3.42;;
20230;SDS011;10274;49.022;9.338;2023-06-10T07:42:18;3.95;;;3.55;;
20230;SDS011;10274;49.022;9.338;2023-06-10T07:44:45;3.90;;;3.50;;
20230;SDS011;10274;49.022;9.338;2023-06-10T07:47:11;3.90;;;3.60;;
20230;SDS011;10274;49.022;9.338;2023-06-10T07:49:38;3.65;;;3.35;;
20230;SDS011;10274;49.022;9.338;2023-06-10T07:52:07;3.63;;;3.28;;
20230;SDS011;10274;49.022;9.338;2023-06-10T07:54:35;3.20;;;3.00;;
20230;SDS011;10274;49.022;9.338;2023-06-10T07:57:02;3.78;;;3.47;;
20230;SDS011;10274;49.022;9.338;2023-06-10T07:59:29;4.00;;;3.60;;
20230;SDS011;10274;49.022;9.338;2023-06-10T08:01:56;3.90;;;3.58;;
20230;SDS011;10274;49.022;9.338;2023-06-10T08:04:23;3.67;;;3.30;;
20230;SDS011;10274;49.022;9.338;2023-06-10T08:06:49;3.78;;;3.20;;
20230;SDS011;10274;49.022;9.338;2023-06-10T08:09:16;3.95;;;3.47;;
20230;SDS011;10274;49.022;9.338;2023-06-10T08:11:45;4.10;;;3.70;;
20230;SDS011;10274;49.022;9.338;2023-06-10T08:14:12;3.88;;;3.55;;
20230;SDS011;10274;49.022;9.338;2023-06-10T08:16:39;4.07;;;3.67;;
20230;SDS011;10274;49.022;9.338;2023-06-10T08:19:06;4.50;;;3.50;;
20230;SDS011;10274;49.022;9.338;2023-06-10T08:21:34;3.70;;;3.20;;
20230;SDS011;10274;49.022;9.338;2023-06-10T08:24:01;3.42;;;3.13;;
20230;SDS011;10274;49.022;9.338;2023-06-10T08:26:28;3.80;;;3.50;;
20230;SDS011;10274;49.022;9.338;2023-06-10T08:28:56;4.20;;;3.53;;
20230;SDS011;10274;49.022;9.338;2023-06-10T08:31:23;3.47;;;3.17;;
20230;SDS011;10274;49.022;9.338;2023-06-10T08:33:50;3.42;;;2.83;;
20230;SDS011;10274;49.022;9.338;2023-06-10T08:36:16;3.30;;;3.00;;
20230;SDS011;10274;49.022;9.338;2023-06-10T08:38:43;3.60;;;3.13;;
20230;SDS011;10274;49.022;9.338;2023-06-10T08:41:10;3.58;;;3.28;;
20230;SDS011;10274;49.022;9.338;2023-06-10T08:43:42;3.47;;;3.17;;
20230;SDS011;10274;49.022;9.338;2023-06-10T08:46:13;2.88;;;2.67;;
20230;SDS011;10274;49.022;9.338;2023-06-10T08:48:42;3.40;;;3.10;;
20230;SDS011;10274;49.022;9.338;2023-06-10T08:51:10;4.57;;;3.08;;
20230;SDS011;10274;49.022;9.338;2023-06-10T08:53:38;3.60;;;3.05;;
20230;SDS011;10274;49.022;9.338;2023-06-10T08:56:14;2.97;;;2.67;;
20230;SDS011;10274;49.022;9.338;2023-06-10T08:58:42;3.50;;;3.17;;
20230;SDS011;10274;49.022;9.338;2023-06-10T09:01:09;3.22;;;2.92;;
20230;SDS011;10274;49.022;9.338;2023-06-10T09:03:39;2.85;;;2.65;;
20230;SDS011;10274;49.022;9.338;2023-06-10T09:06:07;3.63;;;2.80;;
20230;SDS011;10274;49.022;9.338;2023-06-10T09:08:35;3.17;;;2.85;;
20230;SDS011;10274;49.022;9.338;2023-06-10T09:11:01;3.30;;;3.00;;
20230;SDS011;10274;49.022;9.338;2023-06-10T09:13:28;3.25;;;2.95;;
20230;SDS011;10274;49.022;9.338;2023-06-10T09:15:55;4.88;;;2.78;;
20230;SDS011;10274;49.022;9.338;2023-06-10T09:18:25;3.08;;;2.88;;
20230;SDS011;10274;49.022;9.338;2023-06-10T09:20:54;3.08;;;2.72;;
20230;SDS011;10274;49.022;9.338;2023-06-10T09:23:21;3.17;;;2.88;;
20230;SDS011;10274;49.022;9.338;2023-06-10T09:25:53;2.85;;;2.65;;
20230;SDS011;10274;49.022;9.338;2023-06-10T09:28:22;3.30;;;3.00;;
20230;SDS011;10274;49.022;9.338;2023-06-10T09:30:49;3.38;;;3.05;;
20230;SDS011;10274;49.022;9.338;2023-06-10T09:33:27;3.17;;;2.97;;
20230;SDS011;10274;49.022;9.338;2023-06-10T09:35:55;2.85;;;2.65;;
20230;SDS011;10274;49.022;9.338;2023-06-10T09:38:29;3.50;;;2.88;;
20230;SDS011;10274;49.022;9.338;2023-06-10T09:40:56;2.80;;;2.60;;
20230;SDS011;10274;49.022;9.338;2023-06-10T09:43:24;3.17;;;2.92;;
20230;SDS011;10274;49.022;9.338;2023-06-10T09:46:04;3.25;;;2.97;;
20230;SDS011;10274;49.022;9.338;2023-06-10T09:48:34;3.08;;;2.80;;
20230;SDS011;10274;49.022;9.338;2023-06-10T09:51:02;3.67;;;3.20;;
20230;SDS011;10274;49.022;9.338;2023-06-10T09:53:35;2.92;;;2.72;;
20230;SDS011;10274;49.022;9.338;2023-06-10T09:56:02;3.05;;;2.85;;
20230;SDS011;10274;49.022;9.338;2023-06-10T09:58:36;3.03;;;2.83;;
20230;SDS011;10274;49.022;9.338;2023-06-10T10:01:06;4.78;;;3.10;;
20230;SDS011;10274;49.022;9.338;2023-06-10T10:03:42;3.17;;;2.88;;
20230;SDS011;10274;49.022;9.338;2023-06-10T10:06:12;3.10;;;2.88;;
20230;SDS011;10274;49.022;9.338;2023-06-10T10:08:40;2.72;;;2.53;;
20230;SDS011;10274;49.022;9.338;2023-06-10T10:11:07;2.80;;;2.60;;
20230;SDS011;10274;49.022;9.338;2023-06-10T10:13:34;3.10;;;2.85;;
20230;SDS011;10274;49.022;9.338;2023-06-10T10:16:01;2.95;;;2.75;;
20230;SDS011;10274;49.022;9.338;2023-06-10T10:18:32;2.80;;;2.60;;
20230;SDS011;10274;49.022;9.338;2023-06-10T10:21:04;3.63;;;2.90;;
20230;SDS011;10274;49.022;9.338;2023-06-10T10:23:39;5.00;;;2.58;;
20230;SDS011;10274;49.022;9.338;2023-06-10T10:26:07;2.50;;;2.30;;
20230;SDS011;10274;49.022;9.338;2023-06-10T10:28:37;3.72;;;2.50;;
20230;SDS011;10274;49.022;9.338;2023-06-10T10:31:10;2.65;;;2.42;;
20230;SDS011;10274;49.022;9.338;2023-06-10T10:33:46;2.53;;;2.33;;
20230;SDS011;10274;49.022;9.338;2023-06-10T10:36:18;3.33;;;2.40;;
20230;SDS011;10274;49.022;9.338;2023-06-10T10:38:47;2.58;;;2.38;;
20230;SDS011;10274;49.022;9.338;2023-06-10T10:41:14;2.60;;;2.38;;
20230;SDS011;10274;49.022;9.338;2023-06-10T10:43:41;3.08;;;2.83;;
20230;SDS011;10274;49.022;9.338;2023-06-10T10:46:11;2.65;;;2.45;;
20230;SDS011;10274;49.022;9.338;2023-06-10T10:48:39;4.43;;;2.55;;
20230;SDS011;10274;49.022;9.338;2023-06-10T10:51:07;3.22;;;2.20;;
20230;SDS011;10274;49.022;9.338;2023-06-10T10:53:34;2.85;;;2.40;;
20230;SDS011;10274;49.022;9.338;2023-06-10T10:56:05;3.17;;;2.50;;
20230;SDS011;10274;49.022;9.338;2023-06-10T10:58:33;3.20;;;2.90;;
20230;SDS011;10274;49.022;9.338;2023-06-10T11:01:01;2.72;;;2.53;;
20230;SDS011;10274;49.022;9.338;2023-06-10T11:03:41;2.97;;;2.78;;
20230;SDS011;10274;49.022;9.338;2023-06-10T11:06:11;3.05;;;2.55;;
20230;SDS011;10274;49.022;9.338;2023-06-10T11:08:46;3.38;;;2.60;;
20230;SDS011;10274;49.022;9.338;2023-06-10T11:11:18;3.25;;;2.92;;
20230;SDS011;10274;49.022;9.338;2023-06-10T11:16:38;2.72;;;2.53;;
20230;SDS011;10274;49.022;9.338;2023-06-10T11:19:06;3.10;;;2.78;;
20230;SDS011;10274;49.022;9.338;2023-06-10T11:21:37;3.05;;;2.63;;
20230;SDS011;10274;49.022;9.338;2023-06-10T11:24:24;2.70;;;2.50;;
20230;SDS011;10274;49.022;9.338;2023-06-10T11:26:53;2.70;;;2.50;;
20230;SDS011;10274;49.022;9.338;2023-06-10T11:29:20;2.97;;;2.67;;
20230;SDS011;10274;49.022;9.338;2023-06-10T11:31:50;2.67;;;2.47;;
20230;SDS011;10274;49.022;9.338;2023-06-10T11:34:21;3.00;;;2.80;;
20230;SDS011;10274;49.022;9.338;2023-06-10T11:36:52;3.30;;;3.00;;
20230;SDS011;10274;49.022;9.338;2023-06-10T11:39:20;10.15;;;4.40;;
20230;SDS011;10274;49.022;9.338;2023-06-10T11:41:52;4.40;;;3.33;;
20230;SDS011;10274;49.022;9.338;2023-06-10T11:44:20;3.25;;;2.75;;
20230;SDS011;10274;49.022;9.338;2023-06-10T11:46:47;3.33;;;2.90;;
20230;SDS011;10274;49.022;9.338;2023-06-10T11:49:15;3.38;;;2.55;;
20230;SDS011;10274;49.022;9.338;2023-06-10T11:51:42;3.00;;;2.72;;
20230;SDS011;10274;49.022;9.338;2023-06-10T11:54:14;4.07;;;2.55;;
20230;SDS011;10274;49.022;9.338;2023-06-10T11:56:42;2.65;;;2.40;;
20230;SDS011;10274;49.022;9.338;2023-06-10T11:59:10;3.00;;;2.70;;
20230;SDS011;10274;49.022;9.338;2023-06-10T12:01:37;2.60;;;2.35;;
20230;SDS011;10274;49.022;9.338;2023-06-10T12:04:08;2.60;;;2.40;;
20230;SDS011;10274;49.022;9.338;2023-06-10T12:06:40;2.50;;;2.10;;
20230;SDS011;10274;49.022;9.338;2023-06-10T12:09:12;2.50;;;2.30;;
20230;SDS011;10274;49.022;9.338;2023-06-10T12:11:40;2.60;;;2.40;;
20230;SDS011;10274;49.022;9.338;2023-06-10T12:14:09;2.63;;;2.10;;
20230;SDS011;10274;49.022;9.338;2023-06-10T12:16:36;3.17;;;2.30;;
20230;SDS011;10274;49.022;9.338;2023-06-10T12:19:03;2.70;;;2.15;;
20230;SDS011;10274;49.022;9.338;2023-06-10T12:21:31;1.92;;;1.83;;
20230;SDS011;10274;49.022;9.338;2023-06-10T12:24:00;2.63;;;2.30;;
20230;SDS011;10274;49.022;9.338;2023-06-10T12:26:38;1.95;;;1.85;;
20230;SDS011;10274;49.022;9.338;2023-06-10T12:29:17;2.15;;;1.95;;
20230;SDS011;10274;49.022;9.338;2023-06-10T12:31:55;2.47;;;2.22;;
20230;SDS011;10274;49.022;9.338;2023-06-10T12:34:32;2.25;;;2.10;;
20230;SDS011;10274;49.022;9.338;2023-06-10T12:37:00;2.38;;;2.17;;
20230;SDS011;10274;49.022;9.338;2023-06-10T12:39:28;2.20;;;2.03;;
20230;SDS011;10274;49.022;9.338;2023-06-10T12:41:54;2.35;;;2.15;;
20230;SDS011;10274;49.022;9.338;2023-06-10T12:44:32;2.72;;;2.53;;
20230;SDS011;10274;49.022;9.338;2023-06-10T12:47:00;1.88;;;1.77;;
20230;SDS011;10274;49.022;9.338;2023-06-10T12:49:33;2.55;;;2.28;;
20230;SDS011;10274;49.022;9.338;2023-06-10T12:52:00;2.15;;;2.00;;
20230;SDS011;10274;49.022;9.338;2023-06-10T12:54:27;2.30;;;2.10;;
20230;SDS011;10274;49.022;9.338;2023-06-10T12:56:54;2.38;;;2.17;;
20230;SDS011;10274;49.022;9.338;2023-06-10T12:59:21;2.20;;;1.80;;
20230;SDS011;10274;49.022;9.338;2023-06-10T13:01:51;2.30;;;2.10;;
20230;SDS011;10274;49.022;9.338;2023-06-10T13:04:18;2.50;;;2.30;;
20230;SDS011;10274;49.022;9.338;2023-06-10T13:06:44;2.42;;;2.22;;
20230;SDS011;10274;49.022;9.338;2023-06-10T13:09:12;2.53;;;2.33;;
20230;SDS011;10274;49.022;9.338;2023-06-10T13:11:39;3.95;;;2.50;;
20230;SDS011;10274;49.022;9.338;2023-06-10T13:14:06;2.65;;;2.20;;
20230;SDS011;10274;49.022;9.338;2023-06-10T13:16:33;2.90;;;2.10;;
20230;SDS011;10274;49.022;9.338;2023-06-10T13:19:04;2.47;;;2.25;;
20230;SDS011;10274;49.022;9.338;2023-06-10T13:21:31;3.25;;;2.40;;
20230;SDS011;10274;49.022;9.338;2023-06-10T13:23:58;2.60;;;2.40;;
20230;SDS011;10274;49.022;9.338;2023-06-10T13:26:25;2.60;;;2.40;;
20230;SDS011;10274;49.022;9.338;2023-06-10T13:28:52;2.95;;;2.58;;
20230;SDS011;10274;49.022;9.338;2023-06-10T13:31:19;2.63;;;2.42;;
20230;SDS011;10274;49.022;9.338;2023-06-10T13:33:46;2.65;;;2.10;;
20230;SDS011;10274;49.022;9.338;2023-06-10T13:36:14;5.03;;;2.60;;
20230;SDS011;10274;49.022;9.338;2023-06-10T13:38:41;2.47;;;2.28;;
20230;SDS011;10274;49.022;9.338;2023-06-10T13:41:08;2.45;;;2.25;;
20230;SDS011;10274;49.022;9.338;2023-06-10T13:43:35;4.40;;;2.75;;
20230;SDS011;10274;49.022;9.338;2023-06-10T13:46:02;7.28;;;2.55;;
20230;SDS011;10274;49.022;9.338;2023-06-10T13:48:29;31.20;;;4.65;;
20230;SDS011;10274;49.022;9.338;2023-06-10T13:50:56;10.57;;;3.55;;
20230;SDS011;10274;49.022;9.338;2023-06-10T13:53:24;2.75;;;2.55;;
20230;SDS011;10274;49.022;9.338;2023-06-10T13:55:51;3.38;;;2.70;;
20230;SDS011;10274;49.022;9.338;2023-06-10T13:58:18;2.80;;;2.42;;
20230;SDS011;10274;49.022;9.338;2023-06-10T14:00:44;2.25;;;2.05;;
20230;SDS011;10274;49.022;9.338;2023-06-10T14:03:12;2.20;;;2.10;;
20230;SDS011;10274;49.022;9.338;2023-06-10T14:05:40;2.15;;;2.00;;
20230;SDS011;10274;49.022;9.338;2023-06-10T14:08:06;2.67;;;2.10;;
20230;SDS011;10274;49.022;9.338;2023-06-10T14:10:34;2.67;;;1.92;;
20230;SDS011;10274;49.022;9.338;2023-06-10T14:13:01;2.15;;;2.00;;
20230;SDS011;10274;49.022;9.338;2023-06-10T14:15:28;2.78;;;2.30;;
20230;SDS011;10274;49.022;9.338;2023-06-10T14:17:55;2.70;;;2.50;;
20230;SDS011;10274;49.022;9.338;2023-06-10T14:20:22;2.45;;;2.25;;
20230;SDS011;10274;49.022;9.338;2023-06-10T14:22:50;2.53;;;2.33;;
20230;SDS011;10274;49.022;9.338;2023-06-10T14:25:17;3.05;;;2.75;;
20230;SDS011;10274;49.022;9.338;2023-06-10T14:27:46;4.28;;;2.33;;
20230;SDS011;10274;49.022;9.338;2023-06-10T14:30:13;2.38;;;2.08;;
20230;SDS011;10274;49.022;9.338;2023-06-10T14:32:40;3.22;;;2.50;;
20230;SDS011;10274;49.022;9.338;2023-06-10T14:35:07;2.53;;;2.33;;
20230;SDS011;10274;49.022;9.338;2023-06-10T14:37:34;2.47;;;2.28;;
20230;SDS011;10274;49.022;9.338;2023-06-10T14:40:01;2.50;;;2.30;;
20230;SDS011;10274;49.022;9.338;2023-06-10T14:42:28;2.50;;;2.30;;
20230;SDS011;10274;49.022;9.338;2023-06-10T14:44:56;3.03;;;2.17;;
20230;SDS011;10274;49.022;9.338;2023-06-10T14:47:23;2.38;;;2.17;;
20230;SDS011;10274;49.022;9.338;2023-06-10T14:49:50;2.95;;;2.70;;
20230;SDS011;10274;49.022;9.338;2023-06-10T14:52:17;2.60;;;2.40;;
20230;SDS011;10274;49.022;9.338;2023-06-10T14:54:43;2.60;;;2.40;;